sensor_id;sensor_type;location;lat;lon;timestamp;P1;durP1;ratioP1;P2;durP2;ratioP2
28760;SDS011;15917;50.014;8.352;2022-12-07T00:01:35;33.00;;;13.57;;
28760;SDS011;15917;50.014;8.352;2022-12-07T00:04:07;34.33;;;13.88;;
28760;SDS011;15917;50.014;8.352;2022-12-07T00:06:44;27.98;;;12.55;;
28760;SDS011;15917;50.014;8.352;2022-12-07T00:09:15;31.15;;;14.00;;
28760;SDS011;15917;50.014;8.352;2022-12-07T00:11:42;31.48;;;12.75;;
28760;SDS011;15917;50.014;8.352;2022-12-07T00:14:10;27.00;;;12.70;;
28760;SDS011;15917;50.014;8.352;2022-12-07T00:16:37;29.60;;;12.82;;
28760;SDS011;15917;50.014;8.352;2022-12-07T00:19:03;26.13;;;12.70;;
28760;SDS011;15917;50.014;8.352;2022-12-07T00:21:33;34.10;;;11.82;;
28760;SDS011;15917;50.014;8.352;2022-12-07T00:24:00;28.25;;;11.80;;
28760;SDS011;15917;50.014;8.352;2022-12-07T00:26:28;27.13;;;12.90;;
28760;SDS011;15917;50.014;8.352;2022-12-07T00:29:00;29.88;;;14.27;;
28760;SDS011;15917;50.014;8.352;2022-12-07T00:31:29;23.45;;;11.35;;
28760;SDS011;15917;50.014;8.352;2022-12-07T00:34:01;24.30;;;11.13;;
28760;SDS011;15917;50.014;8.352;2022-12-07T00:36:27;22.02;;;11.00;;
28760;SDS011;15917;50.014;8.352;2022-12-07T00:38:54;24.85;;;10.68;;
28760;SDS011;15917;50.014;8.352;2022-12-07T00:41:21;25.63;;;11.27;;
28760;SDS011;15917;50.014;8.352;2022-12-07T00:43:48;29.58;;;12.23;;
28760;SDS011;15917;50.014;8.352;2022-12-07T00:46:15;21.45;;;11.27;;
28760;SDS011;15917;50.014;8.352;2022-12-07T00:48:41;28.45;;;11.90;;
28760;SDS011;15917;50.014;8.352;2022-12-07T00:51:07;22.30;;;10.13;;
28760;SDS011;15917;50.014;8.352;2022-12-07T00:53:35;21.30;;;10.05;;
28760;SDS011;15917;50.014;8.352;2022-12-07T00:56:05;22.17;;;10.80;;
28760;SDS011;15917;50.014;8.352;2022-12-07T00:58:36;19.13;;;9.40;;
28760;SDS011;15917;50.014;8.352;2022-12-07T01:01:02;23.60;;;9.95;;
28760;SDS011;15917;50.014;8.352;2022-12-07T01:03:29;17.27;;;9.55;;
28760;SDS011;15917;50.014;8.352;2022-12-07T01:05:55;19.98;;;9.70;;
28760;SDS011;15917;50.014;8.352;2022-12-07T01:08:23;23.63;;;10.10;;
28760;SDS011;15917;50.014;8.352;2022-12-07T01:10:57;20.23;;;9.77;;
28760;SDS011;15917;50.014;8.352;2022-12-07T01:13:24;19.23;;;8.77;;
28760;SDS011;15917;50.014;8.352;2022-12-07T01:15:49;20.27;;;9.80;;
28760;SDS011;15917;50.014;8.352;2022-12-07T01:18:15;20.60;;;9.15;;
28760;SDS011;15917;50.014;8.352;2022-12-07T01:20:41;19.70;;;9.25;;
28760;SDS011;15917;50.014;8.352;2022-12-07T01:23:06;20.80;;;9.55;;
28760;SDS011;15917;50.014;8.352;2022-12-07T01:25:32;17.60;;;8.55;;
28760;SDS011;15917;50.014;8.352;2022-12-07T01:27:57;18.50;;;8.05;;
28760;SDS011;15917;50.014;8.352;2022-12-07T01:30:23;16.60;;;8.52;;
28760;SDS011;15917;50.014;8.352;2022-12-07T01:32:49;16.63;;;7.80;;
28760;SDS011;15917;50.014;8.352;2022-12-07T01:35:14;23.70;;;8.13;;
28760;SDS011;15917;50.014;8.352;2022-12-07T01:37:40;28.13;;;9.55;;
28760;SDS011;15917;50.014;8.352;2022-12-07T01:40:06;22.77;;;7.53;;
28760;SDS011;15917;50.014;8.352;2022-12-07T01:42:33;16.57;;;8.07;;
28760;SDS011;15917;50.014;8.352;2022-12-07T01:47:43;18.55;;;8.18;;
28760;SDS011;15917;50.014;8.352;2022-12-07T01:50:14;18.52;;;8.98;;
28760;SDS011;15917;50.014;8.352;2022-12-07T01:52:40;14.13;;;6.82;;
28760;SDS011;15917;50.014;8.352;2022-12-07T01:55:10;15.23;;;7.28;;
28760;SDS011;15917;50.014;8.352;2022-12-07T01:57:39;19.85;;;8.50;;
28760;SDS011;15917;50.014;8.352;2022-12-07T02:00:08;16.95;;;7.35;;
28760;SDS011;15917;50.014;8.352;2022-12-07T02:02:47;17.10;;;8.20;;
28760;SDS011;15917;50.014;8.352;2022-12-07T02:05:18;17.08;;;7.72;;
28760;SDS011;15917;50.014;8.352;2022-12-07T02:07:44;14.20;;;6.88;;
28760;SDS011;15917;50.014;8.352;2022-12-07T02:10:20;17.85;;;7.32;;
28760;SDS011;15917;50.014;8.352;2022-12-07T02:12:49;13.77;;;7.05;;
28760;SDS011;15917;50.014;8.352;2022-12-07T02:15:19;18.48;;;8.18;;
28760;SDS011;15917;50.014;8.352;2022-12-07T02:17:59;16.25;;;7.10;;
28760;SDS011;15917;50.014;8.352;2022-12-07T02:20:58;15.82;;;7.80;;
28760;SDS011;15917;50.014;8.352;2022-12-07T02:26:36;15.95;;;8.00;;
28760;SDS011;15917;50.014;8.352;2022-12-07T02:29:20;19.08;;;7.38;;
28760;SDS011;15917;50.014;8.352;2022-12-07T02:36:51;14.73;;;7.70;;
28760;SDS011;15917;50.014;8.352;2022-12-07T02:39:28;16.85;;;7.68;;
28760;SDS011;15917;50.014;8.352;2022-12-07T02:42:02;16.67;;;7.22;;
28760;SDS011;15917;50.014;8.352;2022-12-07T02:47:07;16.15;;;7.28;;
28760;SDS011;15917;50.014;8.352;2022-12-07T02:49:37;15.98;;;8.07;;
28760;SDS011;15917;50.014;8.352;2022-12-07T02:52:04;16.55;;;7.47;;
28760;SDS011;15917;50.014;8.352;2022-12-07T02:54:30;17.02;;;7.40;;
28760;SDS011;15917;50.014;8.352;2022-12-07T02:57:06;15.85;;;8.05;;
28760;SDS011;15917;50.014;8.352;2022-12-07T03:00:03;16.83;;;7.80;;
28760;SDS011;15917;50.014;8.352;2022-12-07T03:11:08;22.35;;;8.07;;
28760;SDS011;15917;50.014;8.352;2022-12-07T03:13:41;19.40;;;8.23;;
28760;SDS011;15917;50.014;8.352;2022-12-07T03:16:18;20.95;;;7.82;;
28760;SDS011;15917;50.014;8.352;2022-12-07T03:21:30;23.52;;;9.13;;
28760;SDS011;15917;50.014;8.352;2022-12-07T03:24:07;19.17;;;7.70;;
28760;SDS011;15917;50.014;8.352;2022-12-07T03:26:38;17.08;;;8.48;;
28760;SDS011;15917;50.014;8.352;2022-12-07T03:29:31;17.40;;;7.97;;
28760;SDS011;15917;50.014;8.352;2022-12-07T03:32:11;17.50;;;8.43;;
28760;SDS011;15917;50.014;8.352;2022-12-07T03:34:46;18.35;;;8.45;;
28760;SDS011;15917;50.014;8.352;2022-12-07T03:38:05;18.48;;;7.88;;
28760;SDS011;15917;50.014;8.352;2022-12-07T03:40:37;19.13;;;7.93;;
28760;SDS011;15917;50.014;8.352;2022-12-07T03:43:14;17.15;;;8.15;;
28760;SDS011;15917;50.014;8.352;2022-12-07T03:45:42;20.58;;;8.27;;
28760;SDS011;15917;50.014;8.352;2022-12-07T03:48:25;17.15;;;7.38;;
28760;SDS011;15917;50.014;8.352;2022-12-07T03:51:13;19.85;;;7.57;;
28760;SDS011;15917;50.014;8.352;2022-12-07T03:53:44;19.50;;;8.18;;
28760;SDS011;15917;50.014;8.352;2022-12-07T03:56:17;18.83;;;7.93;;
28760;SDS011;15917;50.014;8.352;2022-12-07T03:58:44;22.08;;;8.48;;
28760;SDS011;15917;50.014;8.352;2022-12-07T04:01:10;17.55;;;7.72;;
28760;SDS011;15917;50.014;8.352;2022-12-07T04:03:36;22.35;;;7.40;;
28760;SDS011;15917;50.014;8.352;2022-12-07T04:06:02;15.93;;;7.82;;
28760;SDS011;15917;50.014;8.352;2022-12-07T04:08:28;24.50;;;7.35;;
28760;SDS011;15917;50.014;8.352;2022-12-07T04:10:53;19.52;;;9.05;;
28760;SDS011;15917;50.014;8.352;2022-12-07T04:13:19;23.02;;;7.93;;
28760;SDS011;15917;50.014;8.352;2022-12-07T04:15:44;18.27;;;7.80;;
28760;SDS011;15917;50.014;8.352;2022-12-07T04:18:10;25.58;;;8.15;;
28760;SDS011;15917;50.014;8.352;2022-12-07T04:20:36;24.75;;;7.45;;
28760;SDS011;15917;50.014;8.352;2022-12-07T04:23:01;21.02;;;7.68;;
28760;SDS011;15917;50.014;8.352;2022-12-07T04:25:27;15.32;;;7.72;;
28760;SDS011;15917;50.014;8.352;2022-12-07T04:27:52;18.17;;;8.20;;
28760;SDS011;15917;50.014;8.352;2022-12-07T04:30:18;17.75;;;7.97;;
28760;SDS011;15917;50.014;8.352;2022-12-07T04:32:44;13.88;;;7.72;;
28760;SDS011;15917;50.014;8.352;2022-12-07T04:35:10;16.77;;;7.57;;
28760;SDS011;15917;50.014;8.352;2022-12-07T04:37:35;23.65;;;8.70;;
28760;SDS011;15917;50.014;8.352;2022-12-07T04:40:01;19.77;;;7.38;;
28760;SDS011;15917;50.014;8.352;2022-12-07T04:42:27;20.55;;;7.60;;
28760;SDS011;15917;50.014;8.352;2022-12-07T04:44:52;23.80;;;8.05;;
28760;SDS011;15917;50.014;8.352;2022-12-07T04:47:18;27.88;;;8.77;;
28760;SDS011;15917;50.014;8.352;2022-12-07T04:49:43;30.10;;;8.93;;
28760;SDS011;15917;50.014;8.352;2022-12-07T04:52:09;22.23;;;8.40;;
28760;SDS011;15917;50.014;8.352;2022-12-07T04:54:35;24.67;;;9.18;;
28760;SDS011;15917;50.014;8.352;2022-12-07T04:57:00;25.77;;;10.70;;
28760;SDS011;15917;50.014;8.352;2022-12-07T04:59:26;35.35;;;14.52;;
28760;SDS011;15917;50.014;8.352;2022-12-07T05:01:51;43.88;;;12.95;;
28760;SDS011;15917;50.014;8.352;2022-12-07T05:04:17;31.63;;;12.00;;
28760;SDS011;15917;50.014;8.352;2022-12-07T05:06:43;32.63;;;11.85;;
28760;SDS011;15917;50.014;8.352;2022-12-07T05:09:08;28.70;;;9.43;;
28760;SDS011;15917;50.014;8.352;2022-12-07T05:11:34;19.98;;;9.00;;
28760;SDS011;15917;50.014;8.352;2022-12-07T05:14:03;20.63;;;8.88;;
28760;SDS011;15917;50.014;8.352;2022-12-07T05:18:56;18.00;;;8.27;;
28760;SDS011;15917;50.014;8.352;2022-12-07T05:21:22;33.75;;;10.10;;
28760;SDS011;15917;50.014;8.352;2022-12-07T05:23:48;23.27;;;9.15;;
28760;SDS011;15917;50.014;8.352;2022-12-07T05:26:14;22.42;;;8.40;;
28760;SDS011;15917;50.014;8.352;2022-12-07T05:28:40;23.17;;;9.02;;
28760;SDS011;15917;50.014;8.352;2022-12-07T05:31:05;18.20;;;8.43;;
28760;SDS011;15917;50.014;8.352;2022-12-07T05:33:31;19.48;;;8.88;;
28760;SDS011;15917;50.014;8.352;2022-12-07T05:35:57;17.85;;;8.50;;
28760;SDS011;15917;50.014;8.352;2022-12-07T05:38:23;19.02;;;8.32;;
28760;SDS011;15917;50.014;8.352;2022-12-07T05:40:50;17.85;;;8.80;;
28760;SDS011;15917;50.014;8.352;2022-12-07T05:43:16;19.83;;;9.65;;
28760;SDS011;15917;50.014;8.352;2022-12-07T05:45:41;22.20;;;9.82;;
28760;SDS011;15917;50.014;8.352;2022-12-07T05:48:07;19.50;;;9.77;;
28760;SDS011;15917;50.014;8.352;2022-12-07T05:50:32;22.58;;;9.65;;
28760;SDS011;15917;50.014;8.352;2022-12-07T05:53:01;30.48;;;10.15;;
28760;SDS011;15917;50.014;8.352;2022-12-07T05:55:26;23.58;;;9.50;;
28760;SDS011;15917;50.014;8.352;2022-12-07T05:57:52;22.27;;;10.38;;
28760;SDS011;15917;50.014;8.352;2022-12-07T06:00:36;21.40;;;9.68;;
28760;SDS011;15917;50.014;8.352;2022-12-07T06:03:02;21.10;;;10.35;;
28760;SDS011;15917;50.014;8.352;2022-12-07T06:05:28;25.60;;;9.98;;
28760;SDS011;15917;50.014;8.352;2022-12-07T06:07:53;19.17;;;9.40;;
28760;SDS011;15917;50.014;8.352;2022-12-07T06:10:19;26.35;;;10.05;;
28760;SDS011;15917;50.014;8.352;2022-12-07T06:12:44;18.45;;;9.50;;
28760;SDS011;15917;50.014;8.352;2022-12-07T06:15:11;19.95;;;9.55;;
28760;SDS011;15917;50.014;8.352;2022-12-07T06:17:38;16.15;;;8.98;;
28760;SDS011;15917;50.014;8.352;2022-12-07T06:20:04;19.52;;;9.32;;
28760;SDS011;15917;50.014;8.352;2022-12-07T06:22:30;20.58;;;10.10;;
28760;SDS011;15917;50.014;8.352;2022-12-07T06:24:56;18.23;;;9.23;;
28760;SDS011;15917;50.014;8.352;2022-12-07T06:27:21;24.50;;;9.10;;
28760;SDS011;15917;50.014;8.352;2022-12-07T06:29:47;17.67;;;9.23;;
28760;SDS011;15917;50.014;8.352;2022-12-07T06:32:12;21.48;;;9.52;;
28760;SDS011;15917;50.014;8.352;2022-12-07T06:34:38;19.10;;;9.13;;
28760;SDS011;15917;50.014;8.352;2022-12-07T06:37:04;17.95;;;9.43;;
28760;SDS011;15917;50.014;8.352;2022-12-07T06:39:29;21.23;;;8.98;;
28760;SDS011;15917;50.014;8.352;2022-12-07T06:41:55;19.33;;;8.93;;
28760;SDS011;15917;50.014;8.352;2022-12-07T06:44:22;15.20;;;8.07;;
28760;SDS011;15917;50.014;8.352;2022-12-07T06:46:48;16.67;;;9.10;;
28760;SDS011;15917;50.014;8.352;2022-12-07T06:49:15;19.23;;;8.65;;
28760;SDS011;15917;50.014;8.352;2022-12-07T06:51:40;23.63;;;9.50;;
28760;SDS011;15917;50.014;8.352;2022-12-07T06:54:07;37.80;;;10.55;;
28760;SDS011;15917;50.014;8.352;2022-12-07T06:56:34;20.30;;;10.05;;
28760;SDS011;15917;50.014;8.352;2022-12-07T06:59:00;15.75;;;9.52;;
28760;SDS011;15917;50.014;8.352;2022-12-07T07:01:26;26.05;;;9.82;;
28760;SDS011;15917;50.014;8.352;2022-12-07T07:03:51;22.27;;;10.00;;
28760;SDS011;15917;50.014;8.352;2022-12-07T07:06:17;25.88;;;10.38;;
28760;SDS011;15917;50.014;8.352;2022-12-07T07:08:43;21.80;;;9.38;;
28760;SDS011;15917;50.014;8.352;2022-12-07T07:11:08;25.55;;;10.98;;
28760;SDS011;15917;50.014;8.352;2022-12-07T07:13:35;17.08;;;7.63;;
28760;SDS011;15917;50.014;8.352;2022-12-07T07:16:01;24.92;;;8.98;;
28760;SDS011;15917;50.014;8.352;2022-12-07T07:18:27;15.65;;;8.98;;
28760;SDS011;15917;50.014;8.352;2022-12-07T07:20:53;34.95;;;9.35;;
28760;SDS011;15917;50.014;8.352;2022-12-07T07:23:20;17.08;;;7.55;;
28760;SDS011;15917;50.014;8.352;2022-12-07T07:25:46;14.43;;;7.50;;
28760;SDS011;15917;50.014;8.352;2022-12-07T07:28:12;14.35;;;7.47;;
28760;SDS011;15917;50.014;8.352;2022-12-07T07:30:38;12.70;;;7.18;;
28760;SDS011;15917;50.014;8.352;2022-12-07T07:33:04;14.57;;;7.25;;
28760;SDS011;15917;50.014;8.352;2022-12-07T07:35:31;16.08;;;7.53;;
28760;SDS011;15917;50.014;8.352;2022-12-07T07:37:58;15.38;;;8.10;;
28760;SDS011;15917;50.014;8.352;2022-12-07T07:40:24;19.60;;;7.60;;
28760;SDS011;15917;50.014;8.352;2022-12-07T07:42:50;15.68;;;8.43;;
28760;SDS011;15917;50.014;8.352;2022-12-07T07:45:17;18.50;;;8.32;;
28760;SDS011;15917;50.014;8.352;2022-12-07T07:47:43;18.67;;;8.15;;
28760;SDS011;15917;50.014;8.352;2022-12-07T07:50:09;24.85;;;8.15;;
28760;SDS011;15917;50.014;8.352;2022-12-07T07:52:35;19.38;;;8.88;;
28760;SDS011;15917;50.014;8.352;2022-12-07T07:55:00;20.80;;;8.38;;
28760;SDS011;15917;50.014;8.352;2022-12-07T07:57:26;19.73;;;8.43;;
28760;SDS011;15917;50.014;8.352;2022-12-07T07:59:52;18.27;;;8.50;;
28760;SDS011;15917;50.014;8.352;2022-12-07T08:02:18;19.85;;;8.63;;
28760;SDS011;15917;50.014;8.352;2022-12-07T08:04:45;25.27;;;10.03;;
28760;SDS011;15917;50.014;8.352;2022-12-07T08:07:11;16.90;;;8.43;;
28760;SDS011;15917;50.014;8.352;2022-12-07T08:09:37;16.90;;;8.23;;
28760;SDS011;15917;50.014;8.352;2022-12-07T08:12:03;18.35;;;8.57;;
28760;SDS011;15917;50.014;8.352;2022-12-07T08:14:29;16.00;;;7.93;;
28760;SDS011;15917;50.014;8.352;2022-12-07T08:16:54;17.33;;;9.02;;
28760;SDS011;15917;50.014;8.352;2022-12-07T08:19:20;24.83;;;9.60;;
28760;SDS011;15917;50.014;8.352;2022-12-07T08:21:46;16.10;;;7.68;;
28760;SDS011;15917;50.014;8.352;2022-12-07T08:24:11;16.50;;;7.93;;
28760;SDS011;15917;50.014;8.352;2022-12-07T08:26:37;17.95;;;9.50;;
28760;SDS011;15917;50.014;8.352;2022-12-07T08:29:03;19.85;;;8.30;;
28760;SDS011;15917;50.014;8.352;2022-12-07T08:31:29;23.75;;;9.07;;
28760;SDS011;15917;50.014;8.352;2022-12-07T08:33:54;34.40;;;10.68;;
28760;SDS011;15917;50.014;8.352;2022-12-07T08:36:20;21.35;;;8.35;;
28760;SDS011;15917;50.014;8.352;2022-12-07T08:38:49;14.68;;;7.85;;
28760;SDS011;15917;50.014;8.352;2022-12-07T08:41:15;15.48;;;7.53;;
28760;SDS011;15917;50.014;8.352;2022-12-07T08:43:41;17.92;;;8.60;;
28760;SDS011;15917;50.014;8.352;2022-12-07T08:46:16;19.77;;;7.93;;
28760;SDS011;15917;50.014;8.352;2022-12-07T08:48:48;17.10;;;8.00;;
28760;SDS011;15917;50.014;8.352;2022-12-07T08:51:17;14.27;;;7.05;;
28760;SDS011;15917;50.014;8.352;2022-12-07T08:53:43;18.05;;;7.55;;
28760;SDS011;15917;50.014;8.352;2022-12-07T08:56:10;11.63;;;6.53;;
28760;SDS011;15917;50.014;8.352;2022-12-07T08:58:36;20.65;;;6.05;;
28760;SDS011;15917;50.014;8.352;2022-12-07T09:01:03;15.77;;;6.22;;
28760;SDS011;15917;50.014;8.352;2022-12-07T09:03:29;12.23;;;6.90;;
28760;SDS011;15917;50.014;8.352;2022-12-07T09:05:56;13.35;;;5.80;;
28760;SDS011;15917;50.014;8.352;2022-12-07T09:08:23;18.40;;;5.97;;
28760;SDS011;15917;50.014;8.352;2022-12-07T09:10:54;19.33;;;7.10;;
28760;SDS011;15917;50.014;8.352;2022-12-07T09:13:20;17.27;;;8.00;;
28760;SDS011;15917;50.014;8.352;2022-12-07T09:15:46;10.13;;;6.10;;
28760;SDS011;15917;50.014;8.352;2022-12-07T09:18:11;14.30;;;5.50;;
28760;SDS011;15917;50.014;8.352;2022-12-07T09:20:37;11.98;;;5.30;;
28760;SDS011;15917;50.014;8.352;2022-12-07T09:23:04;10.68;;;4.78;;
28760;SDS011;15917;50.014;8.352;2022-12-07T09:25:31;10.63;;;4.90;;
28760;SDS011;15917;50.014;8.352;2022-12-07T09:27:57;10.43;;;5.40;;
28760;SDS011;15917;50.014;8.352;2022-12-07T09:30:23;13.52;;;4.88;;
28760;SDS011;15917;50.014;8.352;2022-12-07T09:32:49;11.18;;;5.13;;
28760;SDS011;15917;50.014;8.352;2022-12-07T09:35:15;8.18;;;4.30;;
28760;SDS011;15917;50.014;8.352;2022-12-07T09:37:40;9.20;;;5.45;;
28760;SDS011;15917;50.014;8.352;2022-12-07T09:40:06;12.00;;;5.80;;
28760;SDS011;15917;50.014;8.352;2022-12-07T09:42:33;14.10;;;5.78;;
28760;SDS011;15917;50.014;8.352;2022-12-07T09:45:07;12.38;;;4.65;;
28760;SDS011;15917;50.014;8.352;2022-12-07T09:47:41;10.43;;;4.90;;
28760;SDS011;15917;50.014;8.352;2022-12-07T09:50:12;10.95;;;4.30;;
28760;SDS011;15917;50.014;8.352;2022-12-07T09:52:41;8.40;;;4.97;;
28760;SDS011;15917;50.014;8.352;2022-12-07T09:55:10;8.43;;;4.93;;
28760;SDS011;15917;50.014;8.352;2022-12-07T09:57:38;12.05;;;5.10;;
28760;SDS011;15917;50.014;8.352;2022-12-07T10:00:06;9.30;;;5.35;;
28760;SDS011;15917;50.014;8.352;2022-12-07T10:05:18;9.35;;;4.53;;
28760;SDS011;15917;50.014;8.352;2022-12-07T10:07:47;15.18;;;4.85;;
28760;SDS011;15917;50.014;8.352;2022-12-07T10:10:13;16.90;;;5.60;;
28760;SDS011;15917;50.014;8.352;2022-12-07T10:12:57;11.45;;;5.00;;
28760;SDS011;15917;50.014;8.352;2022-12-07T10:18:21;11.98;;;4.70;;
28760;SDS011;15917;50.014;8.352;2022-12-07T10:23:34;11.48;;;4.90;;
28760;SDS011;15917;50.014;8.352;2022-12-07T10:28:47;9.82;;;5.25;;
28760;SDS011;15917;50.014;8.352;2022-12-07T10:31:17;7.32;;;4.43;;
28760;SDS011;15917;50.014;8.352;2022-12-07T10:36:35;9.15;;;3.78;;
28760;SDS011;15917;50.014;8.352;2022-12-07T10:39:17;5.15;;;3.58;;
28760;SDS011;15917;50.014;8.352;2022-12-07T10:41:58;11.15;;;3.53;;
28760;SDS011;15917;50.014;8.352;2022-12-07T10:44:27;12.00;;;4.43;;
28760;SDS011;15917;50.014;8.352;2022-12-07T10:47:01;8.30;;;3.53;;
28760;SDS011;15917;50.014;8.352;2022-12-07T10:54:47;8.35;;;3.35;;
28760;SDS011;15917;50.014;8.352;2022-12-07T11:00:59;4.95;;;2.60;;
28760;SDS011;15917;50.014;8.352;2022-12-07T11:06:22;5.85;;;3.05;;
28760;SDS011;15917;50.014;8.352;2022-12-07T11:09:13;4.40;;;2.05;;
28760;SDS011;15917;50.014;8.352;2022-12-07T11:17:25;7.15;;;1.65;;
28760;SDS011;15917;50.014;8.352;2022-12-07T11:20:34;4.05;;;1.45;;
28760;SDS011;15917;50.014;8.352;2022-12-07T11:23:24;5.95;;;1.48;;
28760;SDS011;15917;50.014;8.352;2022-12-07T11:26:20;7.35;;;2.10;;
28760;SDS011;15917;50.014;8.352;2022-12-07T11:29:03;6.40;;;1.75;;
28760;SDS011;15917;50.014;8.352;2022-12-07T11:34:38;4.82;;;1.40;;
28760;SDS011;15917;50.014;8.352;2022-12-07T11:37:16;8.68;;;1.67;;
28760;SDS011;15917;50.014;8.352;2022-12-07T11:40:47;2.13;;;1.40;;
28760;SDS011;15917;50.014;8.352;2022-12-07T11:42:46;7.63;;;1.70;;
28760;SDS011;15917;50.014;8.352;2022-12-07T11:45:26;9.57;;;1.90;;
28760;SDS011;15917;50.014;8.352;2022-12-07T11:48:03;6.20;;;1.80;;
28760;SDS011;15917;50.014;8.352;2022-12-07T11:50:44;6.72;;;2.15;;
28760;SDS011;15917;50.014;8.352;2022-12-07T11:53:18;6.43;;;1.60;;
28760;SDS011;15917;50.014;8.352;2022-12-07T11:55:50;8.77;;;1.40;;
28760;SDS011;15917;50.014;8.352;2022-12-07T12:06:40;5.07;;;1.58;;
28760;SDS011;15917;50.014;8.352;2022-12-07T12:09:19;5.65;;;1.55;;
28760;SDS011;15917;50.014;8.352;2022-12-07T12:14:45;9.85;;;1.88;;
28760;SDS011;15917;50.014;8.352;2022-12-07T12:20:36;8.77;;;1.73;;
28760;SDS011;15917;50.014;8.352;2022-12-07T12:23:27;4.88;;;1.83;;
28760;SDS011;15917;50.014;8.352;2022-12-07T12:26:15;3.00;;;1.50;;
28760;SDS011;15917;50.014;8.352;2022-12-07T12:28:53;4.45;;;1.42;;
28760;SDS011;15917;50.014;8.352;2022-12-07T12:34:03;7.20;;;1.42;;
28760;SDS011;15917;50.014;8.352;2022-12-07T12:52:46;3.97;;;1.10;;
28760;SDS011;15917;50.014;8.352;2022-12-07T12:54:38;4.78;;;1.75;;
28760;SDS011;15917;50.014;8.352;2022-12-07T12:57:24;10.00;;;1.58;;
28760;SDS011;15917;50.014;8.352;2022-12-07T13:04:49;4.18;;;1.10;;
28760;SDS011;15917;50.014;8.352;2022-12-07T13:28:52;2.70;;;1.10;;
28760;SDS011;15917;50.014;8.352;2022-12-07T13:31:51;3.45;;;1.13;;
28760;SDS011;15917;50.014;8.352;2022-12-07T13:36:57;3.08;;;1.50;;
28760;SDS011;15917;50.014;8.352;2022-12-07T13:39:25;6.15;;;1.65;;
28760;SDS011;15917;50.014;8.352;2022-12-07T13:41:53;6.57;;;2.00;;
28760;SDS011;15917;50.014;8.352;2022-12-07T13:44:24;4.88;;;1.58;;
28760;SDS011;15917;50.014;8.352;2022-12-07T13:51:51;7.85;;;1.35;;
28760;SDS011;15917;50.014;8.352;2022-12-07T13:54:17;9.55;;;1.48;;
28760;SDS011;15917;50.014;8.352;2022-12-07T13:56:44;9.45;;;1.90;;
28760;SDS011;15917;50.014;8.352;2022-12-07T13:59:16;7.70;;;1.70;;
28760;SDS011;15917;50.014;8.352;2022-12-07T14:01:44;9.30;;;1.90;;
28760;SDS011;15917;50.014;8.352;2022-12-07T14:04:32;8.00;;;2.33;;
28760;SDS011;15917;50.014;8.352;2022-12-07T14:07:01;11.57;;;2.05;;
28760;SDS011;15917;50.014;8.352;2022-12-07T14:09:52;4.60;;;1.63;;
28760;SDS011;15917;50.014;8.352;2022-12-07T14:14:49;6.57;;;2.80;;
28760;SDS011;15917;50.014;8.352;2022-12-07T14:17:16;7.68;;;2.47;;
28760;SDS011;15917;50.014;8.352;2022-12-07T14:22:33;6.22;;;1.65;;
28760;SDS011;15917;50.014;8.352;2022-12-07T14:25:00;9.93;;;1.60;;
28760;SDS011;15917;50.014;8.352;2022-12-07T14:28:00;6.40;;;2.00;;
28760;SDS011;15917;50.014;8.352;2022-12-07T14:30:27;9.18;;;1.95;;
28760;SDS011;15917;50.014;8.352;2022-12-07T14:33:00;5.63;;;2.33;;
28760;SDS011;15917;50.014;8.352;2022-12-07T14:35:28;5.70;;;1.65;;
28760;SDS011;15917;50.014;8.352;2022-12-07T14:37:57;6.70;;;1.60;;
28760;SDS011;15917;50.014;8.352;2022-12-07T14:40:24;9.57;;;2.33;;
28760;SDS011;15917;50.014;8.352;2022-12-07T14:42:54;4.38;;;1.70;;
28760;SDS011;15917;50.014;8.352;2022-12-07T14:45:32;8.45;;;2.10;;
28760;SDS011;15917;50.014;8.352;2022-12-07T14:48:01;12.50;;;3.50;;
28760;SDS011;15917;50.014;8.352;2022-12-07T14:50:26;8.95;;;2.38;;
28760;SDS011;15917;50.014;8.352;2022-12-07T14:52:54;10.68;;;2.67;;
28760;SDS011;15917;50.014;8.352;2022-12-07T14:55:24;6.97;;;2.55;;
28760;SDS011;15917;50.014;8.352;2022-12-07T14:57:54;13.77;;;2.65;;
28760;SDS011;15917;50.014;8.352;2022-12-07T15:00:21;9.80;;;2.10;;
28760;SDS011;15917;50.014;8.352;2022-12-07T15:05:14;4.00;;;1.95;;
28760;SDS011;15917;50.014;8.352;2022-12-07T15:07:40;5.70;;;1.63;;
28760;SDS011;15917;50.014;8.352;2022-12-07T15:10:06;6.68;;;1.38;;
28760;SDS011;15917;50.014;8.352;2022-12-07T15:12:50;6.13;;;1.63;;
28760;SDS011;15917;50.014;8.352;2022-12-07T15:15:16;3.40;;;1.58;;
28760;SDS011;15917;50.014;8.352;2022-12-07T15:17:42;7.55;;;2.10;;
28760;SDS011;15917;50.014;8.352;2022-12-07T15:20:12;6.07;;;1.45;;
28760;SDS011;15917;50.014;8.352;2022-12-07T15:22:41;5.93;;;1.95;;
28760;SDS011;15917;50.014;8.352;2022-12-07T15:25:08;11.38;;;2.33;;
28760;SDS011;15917;50.014;8.352;2022-12-07T15:27:37;4.57;;;2.20;;
28760;SDS011;15917;50.014;8.352;2022-12-07T15:30:03;4.47;;;2.10;;
28760;SDS011;15917;50.014;8.352;2022-12-07T15:32:29;8.18;;;2.20;;
28760;SDS011;15917;50.014;8.352;2022-12-07T15:34:54;6.75;;;2.75;;
28760;SDS011;15917;50.014;8.352;2022-12-07T15:37:20;6.53;;;2.35;;
28760;SDS011;15917;50.014;8.352;2022-12-07T15:39:45;9.98;;;3.13;;
28760;SDS011;15917;50.014;8.352;2022-12-07T15:42:11;3.15;;;1.40;;
28760;SDS011;15917;50.014;8.352;2022-12-07T15:44:37;4.65;;;1.70;;
28760;SDS011;15917;50.014;8.352;2022-12-07T15:47:21;7.55;;;1.98;;
28760;SDS011;15917;50.014;8.352;2022-12-07T15:49:47;5.53;;;2.28;;
28760;SDS011;15917;50.014;8.352;2022-12-07T15:52:12;6.88;;;1.73;;
28760;SDS011;15917;50.014;8.352;2022-12-07T15:54:38;3.92;;;1.65;;
28760;SDS011;15917;50.014;8.352;2022-12-07T15:57:04;9.43;;;2.17;;
28760;SDS011;15917;50.014;8.352;2022-12-07T15:59:30;9.30;;;2.03;;
28760;SDS011;15917;50.014;8.352;2022-12-07T16:01:56;3.65;;;1.30;;
28760;SDS011;15917;50.014;8.352;2022-12-07T16:04:22;4.18;;;1.70;;
28760;SDS011;15917;50.014;8.352;2022-12-07T16:06:48;8.23;;;2.30;;
28760;SDS011;15917;50.014;8.352;2022-12-07T16:09:16;8.70;;;1.95;;
28760;SDS011;15917;50.014;8.352;2022-12-07T16:11:41;3.72;;;2.03;;
28760;SDS011;15917;50.014;8.352;2022-12-07T16:14:07;8.20;;;2.70;;
28760;SDS011;15917;50.014;8.352;2022-12-07T16:16:33;6.47;;;2.50;;
28760;SDS011;15917;50.014;8.352;2022-12-07T16:18:58;5.50;;;2.22;;
28760;SDS011;15917;50.014;8.352;2022-12-07T16:21:24;5.43;;;1.83;;
28760;SDS011;15917;50.014;8.352;2022-12-07T16:23:49;5.20;;;2.28;;
28760;SDS011;15917;50.014;8.352;2022-12-07T16:26:16;4.47;;;2.00;;
28760;SDS011;15917;50.014;8.352;2022-12-07T16:28:44;4.18;;;1.90;;
28760;SDS011;15917;50.014;8.352;2022-12-07T16:31:11;9.70;;;2.80;;
28760;SDS011;15917;50.014;8.352;2022-12-07T16:33:39;5.60;;;2.20;;
28760;SDS011;15917;50.014;8.352;2022-12-07T16:36:06;6.37;;;2.53;;
28760;SDS011;15917;50.014;8.352;2022-12-07T16:38:33;14.67;;;2.63;;
28760;SDS011;15917;50.014;8.352;2022-12-07T16:40:59;9.73;;;2.00;;
28760;SDS011;15917;50.014;8.352;2022-12-07T16:43:25;4.65;;;2.47;;
28760;SDS011;15917;50.014;8.352;2022-12-07T16:45:50;7.03;;;2.10;;
28760;SDS011;15917;50.014;8.352;2022-12-07T16:48:17;10.90;;;2.72;;
28760;SDS011;15917;50.014;8.352;2022-12-07T16:50:43;6.05;;;2.60;;
28760;SDS011;15917;50.014;8.352;2022-12-07T16:53:10;8.60;;;2.83;;
28760;SDS011;15917;50.014;8.352;2022-12-07T16:55:40;8.30;;;3.13;;
28760;SDS011;15917;50.014;8.352;2022-12-07T16:58:07;10.02;;;3.60;;
28760;SDS011;15917;50.014;8.352;2022-12-07T17:00:33;7.90;;;3.53;;
28760;SDS011;15917;50.014;8.352;2022-12-07T17:02:59;11.50;;;4.00;;
28760;SDS011;15917;50.014;8.352;2022-12-07T17:05:25;7.20;;;4.00;;
28760;SDS011;15917;50.014;8.352;2022-12-07T17:07:53;11.20;;;3.35;;